createdAt,value
2017-06-19T00:01:08.629Z,6.07
2017-06-19T00:03:36.199Z,7.00
2017-06-19T00:06:03.767Z,5.77
2017-06-19T00:08:31.346Z,6.60
2017-06-19T00:10:58.932Z,8.60
2017-06-19T00:13:26.520Z,5.40
2017-06-19T00:15:54.098Z,6.40
2017-06-19T00:18:21.694Z,6.03
2017-06-19T00:20:55.649Z,5.93
2017-06-19T00:23:28.873Z,8.27
2017-06-19T00:25:56.498Z,9.70
2017-06-19T00:28:24.084Z,7.60
2017-06-19T00:30:51.659Z,7.00
2017-06-19T00:33:19.213Z,7.10
2017-06-19T00:35:46.813Z,6.17
2017-06-19T00:38:14.375Z,7.07
2017-06-19T00:40:41.957Z,7.07
2017-06-19T00:43:09.617Z,7.63
2017-06-19T00:45:37.173Z,8.37
2017-06-19T00:48:04.728Z,9.90
2017-06-19T00:50:32.438Z,5.90
2017-06-19T00:53:00.014Z,8.90
2017-06-19T00:55:27.582Z,6.43
2017-06-19T00:57:55.923Z,5.80
2017-06-19T01:00:23.478Z,6.20
2017-06-19T01:02:51.094Z,7.43
2017-06-19T01:05:19.431Z,5.97
2017-06-19T01:07:46.977Z,7.40
2017-06-19T01:10:14.578Z,9.20
2017-06-19T01:12:42.129Z,6.27
2017-06-19T01:15:09.695Z,7.70
2017-06-19T01:17:37.277Z,5.90
2017-06-19T01:20:05.609Z,6.53
2017-06-19T01:22:33.249Z,6.87
2017-06-19T01:25:00.824Z,6.33
2017-06-19T01:27:28.462Z,6.60
2017-06-19T01:29:56.024Z,9.27
2017-06-19T01:32:23.577Z,6.90
2017-06-19T01:34:51.186Z,7.20
2017-06-19T01:37:18.738Z,6.20
2017-06-19T01:39:46.316Z,5.97
2017-06-19T01:42:13.910Z,8.40
2017-06-19T01:44:42.249Z,8.20
2017-06-19T01:47:09.812Z,6.23
2017-06-19T01:49:37.374Z,8.20
2017-06-19T01:52:05.013Z,7.37
2017-06-19T01:54:32.602Z,7.00
2017-06-19T01:57:00.157Z,8.00
2017-06-19T01:59:27.733Z,7.10
2017-06-19T02:01:55.313Z,7.00
2017-06-19T02:04:23.649Z,7.30
2017-06-19T02:06:51.206Z,7.00
2017-06-19T02:09:18.785Z,7.37
2017-06-19T02:11:46.352Z,7.67
2017-06-19T02:14:13.910Z,7.63
2017-06-19T02:16:41.504Z,6.50
2017-06-19T02:19:09.906Z,7.43
2017-06-19T02:21:37.473Z,7.50
2017-06-19T02:24:05.046Z,7.40
2017-06-19T02:26:32.612Z,6.70
2017-06-19T02:29:00.250Z,10.50
2017-06-19T02:31:27.806Z,6.53
2017-06-19T02:33:55.372Z,7.77
2017-06-19T02:36:22.970Z,7.97
2017-06-19T02:38:50.538Z,7.37
2017-06-19T02:41:18.133Z,6.43
2017-06-19T02:43:45.690Z,8.50
2017-06-19T02:46:13.263Z,7.80
2017-06-19T02:48:40.834Z,9.90
2017-06-19T02:51:08.419Z,9.97
2017-06-19T02:53:35.998Z,7.77
2017-06-19T02:56:03.568Z,8.23
2017-06-19T02:58:31.137Z,7.60
2017-06-19T03:00:58.695Z,9.83
2017-06-19T03:03:26.258Z,9.27
2017-06-19T03:05:53.859Z,7.90
2017-06-19T03:08:21.442Z,12.70
2017-06-19T03:10:48.999Z,7.23
2017-06-19T03:13:16.553Z,12.43
2017-06-19T03:15:44.307Z,9.03
2017-06-19T03:18:11.873Z,8.87
2017-06-19T03:20:39.453Z,9.80
2017-06-19T03:23:07.038Z,11.87
2017-06-19T03:25:34.605Z,9.60
2017-06-19T03:28:02.181Z,8.93
2017-06-19T03:30:29.759Z,12.33
2017-06-19T03:32:57.315Z,11.13
2017-06-19T03:35:24.906Z,10.87
2017-06-19T03:37:52.482Z,13.50
2017-06-19T03:40:20.049Z,9.07
2017-06-19T03:42:47.626Z,11.07
2017-06-19T03:45:15.187Z,8.97
2017-06-19T03:47:42.756Z,9.20
2017-06-19T03:50:10.372Z,10.03
2017-06-19T03:52:37.931Z,12.83
2017-06-19T03:55:05.487Z,8.67
2017-06-19T03:57:33.079Z,7.37
2017-06-19T04:00:00.660Z,7.90
2017-06-19T04:02:28.211Z,9.23
2017-06-19T04:04:55.824Z,11.83
2017-06-19T04:07:23.418Z,11.63
2017-06-19T04:09:50.982Z,8.57
2017-06-19T04:12:18.578Z,11.40
2017-06-19T04:14:46.911Z,10.30
2017-06-19T04:17:14.550Z,9.13
2017-06-19T04:19:42.106Z,8.80
2017-06-19T04:22:09.710Z,10.13
2017-06-19T04:24:37.300Z,8.97
2017-06-19T04:27:04.901Z,9.60
2017-06-19T04:29:32.549Z,9.63
2017-06-19T04:32:00.135Z,9.70
2017-06-19T04:34:27.701Z,8.00
2017-06-19T04:36:55.270Z,9.13
2017-06-19T04:39:22.877Z,12.00
2017-06-19T04:41:51.222Z,10.40
2017-06-19T04:44:18.814Z,11.30
2017-06-19T04:46:47.166Z,8.80
2017-06-19T04:49:14.779Z,8.07
2017-06-19T04:51:42.350Z,6.93
2017-06-19T04:54:09.931Z,6.80
2017-06-19T04:56:37.498Z,6.20
2017-06-19T04:59:05.094Z,7.13
2017-06-19T05:01:33.429Z,7.27
2017-06-19T05:04:00.994Z,8.67
2017-06-19T05:06:28.581Z,7.07
2017-06-19T05:08:56.147Z,7.63
2017-06-19T05:11:23.732Z,10.10
2017-06-19T05:13:51.407Z,8.17
2017-06-19T05:16:18.965Z,6.77
2017-06-19T05:18:46.557Z,6.37
2017-06-19T05:21:14.174Z,7.47
2017-06-19T05:23:41.751Z,8.37
2017-06-19T05:26:09.358Z,6.40
2017-06-19T05:28:36.919Z,5.97
2017-06-19T05:31:04.491Z,8.40
2017-06-19T05:33:32.043Z,6.40
2017-06-19T05:35:59.663Z,5.43
2017-06-19T05:38:27.231Z,6.80
2017-06-19T05:40:54.799Z,6.80
2017-06-19T05:43:22.452Z,5.50
2017-06-19T05:45:50.044Z,5.60
2017-06-19T05:48:17.614Z,6.03
2017-06-19T05:50:45.190Z,7.13
2017-06-19T05:53:13.543Z,5.10
2017-06-19T05:55:41.113Z,4.90
2017-06-19T05:58:08.693Z,6.57
2017-06-19T06:00:37.058Z,5.47
2017-06-19T06:03:04.646Z,5.27
2017-06-19T06:05:32.202Z,7.97
2017-06-19T06:08:00.540Z,4.70
2017-06-19T06:10:28.220Z,5.43
2017-06-19T06:12:55.779Z,6.60
2017-06-19T06:15:23.343Z,5.00
2017-06-19T06:17:50.927Z,5.73
2017-06-19T06:20:19.250Z,5.50
2017-06-19T06:22:46.818Z,4.33
2017-06-19T06:25:14.450Z,5.00
2017-06-19T06:27:42.114Z,5.27
2017-06-19T06:30:09.673Z,4.10
2017-06-19T06:32:37.251Z,5.13
2017-06-19T06:35:04.842Z,4.73
2017-06-19T06:37:32.406Z,4.30
2017-06-19T06:39:59.989Z,4.13
2017-06-19T06:42:27.583Z,4.60
2017-06-19T06:44:55.129Z,3.93
2017-06-19T06:47:22.720Z,3.90
2017-06-19T06:49:50.334Z,4.70
2017-06-19T06:52:17.890Z,4.37
2017-06-19T06:54:46.248Z,7.60
2017-06-19T06:57:13.836Z,3.80
2017-06-19T06:59:41.492Z,5.80
2017-06-19T07:02:09.045Z,5.87
2017-06-19T07:04:36.689Z,4.93
2017-06-19T07:07:04.270Z,3.90
2017-06-19T07:09:31.819Z,3.93
2017-06-19T07:11:59.403Z,4.00
2017-06-19T07:14:27.730Z,4.63
2017-06-19T07:16:55.290Z,3.80
2017-06-19T07:19:22.874Z,4.40
2017-06-19T07:21:50.450Z,4.00
2017-06-19T07:24:18.017Z,5.40
2017-06-19T07:26:45.598Z,5.50
2017-06-19T07:29:13.989Z,3.43
2017-06-19T07:31:41.569Z,5.13
2017-06-19T07:34:09.142Z,3.83
2017-06-19T07:36:36.705Z,3.67
2017-06-19T07:39:04.282Z,3.60
2017-06-19T07:41:31.851Z,3.37
2017-06-19T07:43:59.417Z,3.90
2017-06-19T07:46:27.051Z,4.00
2017-06-19T07:48:54.610Z,3.53
2017-06-19T07:51:22.165Z,5.83
2017-06-19T07:53:49.742Z,3.50
2017-06-19T07:56:17.329Z,3.40
2017-06-19T07:58:44.907Z,3.67
2017-06-19T08:01:13.234Z,3.63
2017-06-19T08:03:40.836Z,3.70
2017-06-19T08:06:08.478Z,4.03
2017-06-19T08:08:36.056Z,5.73
2017-06-19T08:11:03.650Z,3.73
2017-06-19T08:13:31.201Z,4.00
2017-06-19T08:15:58.783Z,3.70
2017-06-19T08:18:26.360Z,4.10
2017-06-19T08:20:53.998Z,4.97
2017-06-19T08:23:27.249Z,3.80
2017-06-19T08:25:54.810Z,6.90
2017-06-19T08:28:22.407Z,3.50
2017-06-19T08:30:49.978Z,5.30
2017-06-19T08:33:17.573Z,3.20
2017-06-19T08:35:45.147Z,3.40
2017-06-19T08:38:12.705Z,2.77
2017-06-19T08:40:40.297Z,3.27
2017-06-19T08:43:08.622Z,3.17
2017-06-19T08:45:36.170Z,5.03
2017-06-19T08:48:03.766Z,3.17
2017-06-19T08:50:31.341Z,4.00
2017-06-19T08:52:58.894Z,3.20
2017-06-19T08:55:26.507Z,3.10
2017-06-19T08:57:54.066Z,3.50
2017-06-19T09:00:21.626Z,3.20
2017-06-19T09:02:49.209Z,4.40
2017-06-19T09:05:16.767Z,3.33
2017-06-19T09:07:44.353Z,3.80
2017-06-19T09:10:12.014Z,3.30
2017-06-19T09:12:40.021Z,3.23
2017-06-19T09:15:08.474Z,3.10
2017-06-19T09:17:36.063Z,3.03
2017-06-19T09:20:03.655Z,3.53
2017-06-19T09:22:31.222Z,3.63
2017-06-19T09:24:58.782Z,3.33
2017-06-19T09:27:26.389Z,5.97
2017-06-19T09:29:54.050Z,3.60
2017-06-19T09:32:21.618Z,3.67
2017-06-19T09:34:49.978Z,4.23
2017-06-19T09:37:17.547Z,3.60
2017-06-19T09:39:45.117Z,3.80
2017-06-19T09:42:12.695Z,3.97
2017-06-19T09:44:41.006Z,4.40
2017-06-19T09:47:08.604Z,4.23
2017-06-19T09:49:36.274Z,4.07
2017-06-19T09:52:03.826Z,3.90
2017-06-19T09:54:31.400Z,4.30
2017-06-19T09:56:59.002Z,4.27
2017-06-19T09:59:26.585Z,4.50
2017-06-19T10:01:54.143Z,4.03
2017-06-19T10:04:21.694Z,6.03
2017-06-19T10:06:49.269Z,5.43
2017-06-19T10:09:16.837Z,4.37
2017-06-19T10:11:44.511Z,4.23
2017-06-19T10:14:12.090Z,5.83
2017-06-19T10:16:39.661Z,4.40
2017-06-19T10:19:07.244Z,4.30
2017-06-19T10:21:34.835Z,4.27
2017-06-19T10:24:02.418Z,4.47
2017-06-19T10:26:30.101Z,4.40
2017-06-19T10:28:57.647Z,4.53
2017-06-19T10:31:25.333Z,5.30
2017-06-19T10:33:53.796Z,4.83
2017-06-19T10:36:21.390Z,4.93
2017-06-19T10:38:49.002Z,5.30
2017-06-19T10:41:16.595Z,4.33
2017-06-19T10:43:44.162Z,4.50
2017-06-19T10:46:12.490Z,4.30
2017-06-19T10:48:40.089Z,4.43
2017-06-19T10:51:07.765Z,4.60
2017-06-19T10:53:35.334Z,4.73
2017-06-19T10:56:03.699Z,4.17
2017-06-19T10:58:31.294Z,4.60
2017-06-19T11:00:58.870Z,5.37
2017-06-19T11:03:26.448Z,4.70
2017-06-19T11:05:54.056Z,4.90
2017-06-19T11:08:22.454Z,4.87
2017-06-19T11:10:50.055Z,5.20
2017-06-19T11:13:17.618Z,5.43
2017-06-19T11:15:45.215Z,4.53
2017-06-19T11:18:13.558Z,4.70
2017-06-19T11:20:41.132Z,4.80
2017-06-19T11:23:08.694Z,4.77
2017-06-19T11:25:36.312Z,4.53
2017-06-19T11:28:03.889Z,4.60
2017-06-19T11:30:31.491Z,4.70
2017-06-19T11:32:59.205Z,5.53
2017-06-19T11:35:26.771Z,4.80
2017-06-19T11:37:54.366Z,4.90
2017-06-19T11:40:21.930Z,5.87
2017-06-19T11:42:49.509Z,5.10
2017-06-19T11:45:17.139Z,4.67
2017-06-19T11:47:44.706Z,5.17
2017-06-19T11:50:12.263Z,5.43
2017-06-19T11:52:39.862Z,8.53
2017-06-19T11:55:07.418Z,5.27
2017-06-19T11:57:34.979Z,4.93
2017-06-19T12:00:02.574Z,5.33
2017-06-19T12:02:30.182Z,7.70
2017-06-19T12:04:57.746Z,5.77
2017-06-19T12:07:25.338Z,5.50
2017-06-19T12:09:52.906Z,5.67
2017-06-19T12:12:20.470Z,5.23
2017-06-19T12:14:48.064Z,5.23
2017-06-19T12:17:15.648Z,5.03
2017-06-19T12:19:43.205Z,7.03
2017-06-19T12:22:10.806Z,5.80
2017-06-19T12:24:38.362Z,5.50
2017-06-19T12:27:05.944Z,5.10
2017-06-19T12:29:33.543Z,5.87
2017-06-19T12:32:01.146Z,5.40
2017-06-19T12:34:28.694Z,5.00
2017-06-19T12:36:56.293Z,5.57
2017-06-19T12:39:23.862Z,5.70
2017-06-19T12:41:51.449Z,5.20
2017-06-19T12:44:19.043Z,5.33
2017-06-19T12:46:47.370Z,5.10
2017-06-19T12:49:14.922Z,14.53
2017-06-19T12:51:42.506Z,5.57
2017-06-19T12:54:10.102Z,5.77
2017-06-19T12:56:37.696Z,5.30
2017-06-19T12:59:05.298Z,5.43
2017-06-19T13:01:32.861Z,5.10
2017-06-19T13:04:00.428Z,5.03
2017-06-19T13:06:28.009Z,5.57
2017-06-19T13:08:55.596Z,4.93
2017-06-19T13:11:23.158Z,5.50
2017-06-19T13:13:50.755Z,5.40
2017-06-19T13:16:18.317Z,6.23
2017-06-19T13:18:45.910Z,6.00
2017-06-19T13:21:14.249Z,5.07
2017-06-19T13:23:41.824Z,5.03
2017-06-19T13:26:09.399Z,5.80
2017-06-19T13:28:36.966Z,5.40
2017-06-19T13:31:05.338Z,6.10
2017-06-19T13:33:32.918Z,7.10
2017-06-19T13:36:00.477Z,5.30
2017-06-19T13:38:28.057Z,5.90
2017-06-19T13:40:55.643Z,6.17
2017-06-19T13:43:23.202Z,6.37
2017-06-19T13:45:50.802Z,5.73
2017-06-19T13:48:18.361Z,5.80
2017-06-19T13:50:45.958Z,6.53
2017-06-19T13:53:13.525Z,9.27
2017-06-19T13:55:41.082Z,5.70
2017-06-19T13:58:08.670Z,5.50
2017-06-19T14:00:36.287Z,6.70
2017-06-19T14:03:04.645Z,5.90
2017-06-19T14:05:32.315Z,5.67
2017-06-19T14:07:59.923Z,6.77
2017-06-19T14:10:27.496Z,5.63
2017-06-19T14:12:55.097Z,5.63
2017-06-19T14:15:22.685Z,8.77
2017-06-19T14:17:50.256Z,5.90
2017-06-19T14:20:17.834Z,6.23
2017-06-19T14:22:45.410Z,6.10
2017-06-19T14:25:12.975Z,5.80
2017-06-19T14:27:40.558Z,8.50
2017-06-19T14:30:08.151Z,6.33
2017-06-19T14:32:35.726Z,6.50
2017-06-19T14:35:03.311Z,7.50
2017-06-19T14:37:30.863Z,6.67
2017-06-19T14:39:58.462Z,6.00
2017-06-19T14:42:26.057Z,6.10
2017-06-19T14:44:53.635Z,6.07
2017-06-19T14:47:21.205Z,7.30
2017-06-19T14:49:48.786Z,6.03
2017-06-19T14:52:16.340Z,5.90
2017-06-19T14:54:43.978Z,7.70
2017-06-19T14:57:11.564Z,5.97
2017-06-19T14:59:39.120Z,5.93
2017-06-19T15:02:06.724Z,6.90
2017-06-19T15:04:35.073Z,6.83
2017-06-19T15:07:02.715Z,6.40
2017-06-19T15:09:30.338Z,10.03
2017-06-19T15:11:58.681Z,7.90
2017-06-19T15:14:26.238Z,5.37
2017-06-19T15:16:53.837Z,6.73
2017-06-19T15:19:22.164Z,6.00
2017-06-19T15:21:55.383Z,6.20
2017-06-19T15:24:22.965Z,8.20
2017-06-19T15:26:50.542Z,7.37
2017-06-19T15:29:18.145Z,11.20
2017-06-19T15:31:45.719Z,6.27
2017-06-19T15:34:13.354Z,5.97
2017-06-19T15:36:40.913Z,5.93
2017-06-19T15:39:08.478Z,9.53
2017-06-19T15:41:36.203Z,7.90
2017-06-19T15:44:04.547Z,9.00
2017-06-19T15:46:32.107Z,6.43
2017-06-19T15:48:59.691Z,7.00
2017-06-19T15:51:27.308Z,7.40
2017-06-19T15:53:54.899Z,5.97
2017-06-19T15:56:22.470Z,6.57
2017-06-19T15:58:50.090Z,6.57
2017-06-19T16:01:17.723Z,6.83
2017-06-19T16:03:45.310Z,6.10
2017-06-19T16:06:12.878Z,6.73
2017-06-19T16:08:40.463Z,7.83
2017-06-19T16:11:08.035Z,7.10
2017-06-19T16:13:35.627Z,6.83
2017-06-19T16:16:03.184Z,8.13
2017-06-19T16:18:31.518Z,6.10
2017-06-19T16:20:59.102Z,6.20
2017-06-19T16:23:26.669Z,6.07
2017-06-19T16:25:54.263Z,6.03
2017-06-19T16:28:21.854Z,6.00
2017-06-19T16:30:49.418Z,6.63
2017-06-19T16:33:16.994Z,6.43
2017-06-19T16:35:44.578Z,6.40
2017-06-19T16:38:12.142Z,6.47
2017-06-19T16:40:40.498Z,6.13
2017-06-19T16:43:08.078Z,6.47
2017-06-19T16:45:36.417Z,6.10
2017-06-19T16:48:03.991Z,6.70
2017-06-19T16:50:31.592Z,7.07
2017-06-19T16:52:59.935Z,6.40
2017-06-19T16:55:27.518Z,5.87
2017-06-19T16:57:55.846Z,6.93
2017-06-19T17:00:23.443Z,5.97
2017-06-19T17:02:51.026Z,6.30
2017-06-19T17:05:19.370Z,7.10
2017-06-19T17:07:46.970Z,6.60
2017-06-19T17:10:14.558Z,7.47
2017-06-19T17:12:42.126Z,7.30
2017-06-19T17:15:09.693Z,6.00
2017-06-19T17:17:37.274Z,7.87
2017-06-19T17:20:04.885Z,6.60
2017-06-19T17:22:32.799Z,7.10
2017-06-19T17:25:00.371Z,6.87
2017-06-19T17:27:27.978Z,8.63
2017-06-19T17:29:55.555Z,6.23
2017-06-19T17:32:23.122Z,7.77
2017-06-19T17:34:50.699Z,6.97
2017-06-19T17:37:18.296Z,6.80
2017-06-19T17:39:46.682Z,6.80
2017-06-19T17:42:15.017Z,6.53
2017-06-19T17:44:42.606Z,6.10
2017-06-19T17:47:10.194Z,7.30
2017-06-19T17:49:38.578Z,6.67
2017-06-19T17:52:06.159Z,7.80
2017-06-19T17:54:33.718Z,6.53
2017-06-19T17:57:01.330Z,8.80
2017-06-19T17:59:28.898Z,6.10
2017-06-19T18:01:56.469Z,7.30
2017-06-19T18:04:24.775Z,6.93
2017-06-19T18:06:52.423Z,7.43
2017-06-19T18:09:20.906Z,6.53
2017-06-19T18:11:49.331Z,7.10
2017-06-19T18:14:16.934Z,6.80
2017-06-19T18:16:45.285Z,6.33
2017-06-19T18:19:12.843Z,7.90
2017-06-19T18:21:40.444Z,7.30
2017-06-19T18:24:08.803Z,6.70
2017-06-19T18:26:36.431Z,7.50
2017-06-19T18:29:03.990Z,6.87
2017-06-19T18:31:31.601Z,7.00
2017-06-19T18:34:00.059Z,6.40
2017-06-19T18:36:27.726Z,6.77
2017-06-19T18:38:55.339Z,7.70
2017-06-19T18:41:22.906Z,7.97
2017-06-19T18:43:50.534Z,6.63
2017-06-19T18:46:18.896Z,7.00
2017-06-19T18:48:46.516Z,6.90
2017-06-19T18:51:14.115Z,9.93
2017-06-19T18:53:41.698Z,8.33
2017-06-19T18:56:10.032Z,7.70
2017-06-19T18:58:37.614Z,7.47
2017-06-19T19:01:05.222Z,8.33
2017-06-19T19:03:32.781Z,8.90
2017-06-19T19:06:00.387Z,6.90
2017-06-19T19:08:27.961Z,9.60
2017-06-19T19:10:55.570Z,11.80
2017-06-19T19:13:23.164Z,7.10
2017-06-19T19:15:50.733Z,8.13
2017-06-19T19:18:18.354Z,9.30
2017-06-19T19:20:45.934Z,7.80
2017-06-19T19:23:13.512Z,9.90
2017-06-19T19:25:41.087Z,7.50
2017-06-19T19:28:08.655Z,7.57
2017-06-19T19:30:36.247Z,9.67
2017-06-19T19:33:03.868Z,12.17
2017-06-19T19:35:31.455Z,7.30
2017-06-19T19:37:59.859Z,8.13
2017-06-19T19:40:27.434Z,9.00
2017-06-19T19:42:55.050Z,10.40
2017-06-19T19:45:23.359Z,10.07
2017-06-19T19:47:51.005Z,9.73
2017-06-19T19:50:18.594Z,8.80
2017-06-19T19:52:46.185Z,10.83
2017-06-19T19:55:13.772Z,8.70
2017-06-19T19:57:41.357Z,8.63
2017-06-19T20:00:09.690Z,8.00
2017-06-19T20:02:37.286Z,8.60
2017-06-19T20:05:04.879Z,8.77
2017-06-19T20:07:32.454Z,8.40
2017-06-19T20:10:00.009Z,7.93
2017-06-19T20:12:27.623Z,8.77
2017-06-19T20:14:55.982Z,10.97
2017-06-19T20:17:23.545Z,8.70
2017-06-19T20:19:51.130Z,8.63
2017-06-19T20:22:18.690Z,13.20
2017-06-19T20:24:47.130Z,10.37
2017-06-19T20:27:14.714Z,8.30
2017-06-19T20:29:42.310Z,9.80
2017-06-19T20:32:09.911Z,8.47
2017-06-19T20:34:37.482Z,9.40
2017-06-19T20:37:05.098Z,9.43
2017-06-19T20:39:32.694Z,11.67
2017-06-19T20:42:00.322Z,9.03
2017-06-19T20:44:27.891Z,12.77
2017-06-19T20:46:55.454Z,11.33
2017-06-19T20:49:23.119Z,9.37
2017-06-19T20:51:50.726Z,11.00
2017-06-19T20:54:18.313Z,10.60
2017-06-19T20:56:45.882Z,10.43
2017-06-19T20:59:13.521Z,9.27
2017-06-19T21:01:41.106Z,11.70
2017-06-19T21:04:08.675Z,10.00
2017-06-19T21:06:36.243Z,9.80
2017-06-19T21:09:03.855Z,10.63
2017-06-19T21:11:31.414Z,11.57
2017-06-19T21:13:58.983Z,10.50
2017-06-19T21:16:26.563Z,9.67
2017-06-19T21:18:54.895Z,11.10
2017-06-19T21:21:22.476Z,10.70
2017-06-19T21:23:50.047Z,12.03
2017-06-19T21:26:17.602Z,11.50
2017-06-19T21:28:45.305Z,11.60
2017-06-19T21:31:12.874Z,11.67
2017-06-19T21:33:40.452Z,10.97
2017-06-19T21:36:08.064Z,15.90
2017-06-19T21:38:35.695Z,9.90
2017-06-19T21:41:03.269Z,10.60
2017-06-19T21:43:30.870Z,11.90
2017-06-19T21:45:58.510Z,10.23
2017-06-19T21:48:26.082Z,11.03
2017-06-19T21:50:53.660Z,13.10
2017-06-19T21:53:21.266Z,10.23
2017-06-19T21:55:48.839Z,12.00
2017-06-19T21:58:16.393Z,11.27
2017-06-19T22:00:44.019Z,12.10
2017-06-19T22:03:11.595Z,14.53
2017-06-19T22:05:39.163Z,10.30
2017-06-19T22:08:06.782Z,11.40
2017-06-19T22:10:34.363Z,11.70
2017-06-19T22:13:01.938Z,11.37
2017-06-19T22:15:29.520Z,10.93
2017-06-19T22:17:57.086Z,12.23
2017-06-19T22:20:24.684Z,11.47
2017-06-19T22:22:58.896Z,10.90
2017-06-19T22:25:26.482Z,12.33
2017-06-19T22:27:54.068Z,13.33
2017-06-19T22:30:21.626Z,12.40
2017-06-19T22:32:49.214Z,12.83
2017-06-19T22:35:16.782Z,12.23
2017-06-19T22:37:44.341Z,11.63
2017-06-19T22:40:12.002Z,11.20
2017-06-19T22:42:39.566Z,10.67
2017-06-19T22:45:07.120Z,10.93
2017-06-19T22:47:34.773Z,11.43
2017-06-19T22:50:02.379Z,13.73
2017-06-19T22:52:29.946Z,12.83
2017-06-19T22:54:57.514Z,11.50
2017-06-19T22:57:25.101Z,11.40
2017-06-19T22:59:52.689Z,13.07
2017-06-19T23:02:20.289Z,14.93
2017-06-19T23:04:47.842Z,13.17
2017-06-19T23:07:15.433Z,12.43
2017-06-19T23:09:43.005Z,13.40
2017-06-19T23:12:10.582Z,12.33
2017-06-19T23:14:38.147Z,15.10
2017-06-19T23:17:05.733Z,15.70
2017-06-19T23:19:33.305Z,17.73
2017-06-19T23:22:01.646Z,13.10
2017-06-19T23:24:29.230Z,12.87
2017-06-19T23:26:56.796Z,16.47
2017-06-19T23:29:25.134Z,13.50
2017-06-19T23:31:52.716Z,13.37
2017-06-19T23:34:20.309Z,17.03
2017-06-19T23:36:47.914Z,17.80
2017-06-19T23:39:15.493Z,14.90
2017-06-19T23:41:43.081Z,12.20
2017-06-19T23:44:11.427Z,13.90
2017-06-19T23:46:38.978Z,17.30
2017-06-19T23:49:06.571Z,13.83
2017-06-19T23:51:34.913Z,14.30
2017-06-19T23:54:02.474Z,15.40
2017-06-19T23:56:30.058Z,15.57
2017-06-19T23:58:57.631Z,15.27
